Flight Track Log - Related Links

Times and Time Zones

All times are in EST time to prevent confusion due to time zone crossing. See the N449ND flight status page for this flight to view local times or setup timezone preferences in your user account.

Time Position Orientation Groundspeed Altitude Reporting Facility
EST Latitude Longitude Course Direction KTS MPH feet Rate Location/Type
Thu 08:40:00 PM 26.2659 -81.6341 42° Northeast  Level FlightAware Approximate
Thu 08:41:00 PM 26.2863 -81.6134 44° Northeast  Level FlightAware Approximate
Thu 08:42:00 PM 26.3061 -81.5918 44° Northeast  Level FlightAware Approximate
Thu 08:43:00 PM 26.3259 -81.5703 44° Northeast  Level FlightAware Approximate
Thu 08:44:00 PM 26.3457 -81.5487 44° Northeast  Level FlightAware Approximate
Thu 08:45:00 PM 26.3655 -81.5271 44° Northeast  Level FlightAware Approximate
Thu 08:46:00 PM 26.3853 -81.5055 44° Northeast  Level FlightAware Approximate
Thu 08:47:00 PM 26.4051 -81.4839 44° Northeast  Level FlightAware Approximate
Thu 08:48:00 PM 26.4249 -81.4623 44° Northeast  Level FlightAware Approximate
Thu 08:48:50 PM 26.3953 -81.4925 47° Northeast 118 136 5,000  Level Miami Center
Thu 08:49:00 PM 26.4447 -81.4407 44° Northeast  Level FlightAware Approximate
Thu 08:49:50 PM 26.4150 -81.4656 51° Northeast 111 128 5,000  Level Miami Center
Thu 08:50:00 PM 26.4645 -81.4191 44° Northeast  Level FlightAware Approximate
Thu 08:50:50 PM 26.4325 -81.4383 54° Northeast 106 122 5,000  Level Miami Center
Thu 08:51:00 PM 26.4836 -81.3967 47° Northeast  Level FlightAware Approximate
Thu 08:51:50 PM 26.4500 -81.4114 54° Northeast 106 122 5,000  Level Miami Center
Thu 08:52:00 PM 26.5026 -81.3743 47° Northeast  Level FlightAware Approximate
Thu 08:52:50 PM 26.4678 -81.3842 54° Northeast 106 122 5,000  Level Miami Center
Thu 08:53:00 PM 26.5217 -81.3518 47° Northeast  Level FlightAware Approximate
Thu 08:53:50 PM 26.4894 -81.3547 51° Northeast 106 122 5,000  Level Miami Center
Thu 08:54:50 PM 26.5047 -81.3297 56° Northeast 106 122 5,000  Level Miami Center
Thu 08:55:50 PM 26.5244 -81.3028 51° Northeast 106 122 5,000  Level Miami Center
Thu 08:56:50 PM 26.5442 -81.2756 51° Northeast 106 122 5,000  Level Miami Center
Thu 08:57:50 PM 26.5617 -81.2483 54° Northeast 106 122 5,000 50 Level Miami Center
Thu 08:58:50 PM 26.5772 -81.2189 59° Northeast 106 122 5,100 50 Climbing Miami Center
Thu 08:59:50 PM 26.5906 -81.1892 63° Northeast 106 122 5,100  Level Miami Center
Thu 09:00:50 PM 26.6061 -81.1572 61° Northeast 106 122 5,100  Level Miami Center
Thu 09:01:50 PM 26.6194 -81.1253 65° Northeast 106 122 5,100 50 Level Miami Center
Thu 09:02:50 PM 26.6308 -81.0953 67° East 112 129 5,200 50 Climbing Miami Center
Thu 09:03:50 PM 26.6419 -81.0678 66° East 112 129 5,200 -100 Level Miami Center
Thu 09:04:50 PM 26.6533 -81.0358 68° East 112 129 5,000 -100 Descending Miami Center
Thu 09:05:50 PM 26.6669 -80.9992 67° East 112 129 5,000  Level Miami Center
Thu 09:06:50 PM 26.6783 -80.9669 68° East 106 122 5,000 50 Level Miami Center
Thu 09:07:50 PM 26.6917 -80.9372 63° Northeast 106 122 5,100  Climbing Miami Center
Thu 09:08:50 PM 26.7031 -80.9097 65° Northeast 106 122 5,000 -50 Descending Miami Center
Thu 09:09:50 PM 26.7164 -80.8800 63° Northeast 106 122 5,000  Level Miami Center
Thu 09:10:50 PM 26.7256 -80.8431 74° East 111 128 5,000  Level Miami Center
Thu 09:11:50 PM 26.7392 -80.8108 65° Northeast 111 128 5,000  Level Miami Center
Thu 09:12:50 PM 26.7483 -80.7786 72° East 111 128 5,000  Level Miami Center
Thu 09:13:50 PM 26.7428 -80.7483 102° East 106 122 5,000  Level Miami Center
Thu 09:14:50 PM 26.7439 -80.7089 88° East 106 122 5,000  Level Miami Center
Thu 09:15:50 PM 26.7425 -80.6786 93° East 106 122 5,000 -50 Level Miami Center
Thu 09:16:50 PM 26.7456 -80.6414 85° East 106 122 4,900 -100 Descending Miami Center
Thu 09:18:00 PM 26.7415 -80.6049 97° East  Level FlightAware Approximate
Thu 09:25:00 PM 26.7170 -80.3859 97° East  Level FlightAware Approximate
Thu 09:26:00 PM 26.7125 -80.3541 99° East  Level FlightAware Approximate
Thu 09:27:00 PM 26.7080 -80.3229 99° East  Level FlightAware Approximate
Thu 09:28:00 PM 26.7036 -80.2918 99° East  Level FlightAware Approximate
Thu 09:29:00 PM 26.6988 -80.2608 103° East  Level FlightAware Approximate
Thu 09:30:00 PM 26.6927 -80.2300 103° East  Level FlightAware Approximate
Thu 09:31:00 PM 26.6865 -80.1992 103° East  Level FlightAware Approximate
Thu 09:32:00 PM 26.6808 -80.1684 101° East  Level FlightAware Approximate
Thu 09:33:00 PM 26.6757 -80.1374 101° East  Level FlightAware Approximate
Thu 09:34:00 PM 26.6705 -80.1064 101° East  Level FlightAware Approximate
Thu 09:35:00 PM 26.6667 -80.0833 101° East  Level FlightAware Approximate
Thu 09:36:00 PM 26.6832 -80.0956 101° East  Level Estimated
Thu 09:37:00 PM 26.6832 -80.0956 101° East  Level Estimated
Thu 09:38:00 PM 26.6832 -80.0956 101° East  Level Estimated
Thu 09:39:00 PM 26.6832 -80.0956 101° East  Level Estimated
Thu 09:40:00 PM 26.6832 -80.0956 101° East  Level Estimated
Thu 09:41:00 PM 26.6832 -80.0956 101° East  Level Estimated
Thu 09:42:00 PM 26.6832 -80.0956 101° East  Level Estimated
Thu 09:43:00 PM 26.6832 -80.0956 101° East  Level Estimated
Thu 09:44:00 PM 26.6832 -80.0956 101° East  Level Estimated
Thu 09:45:00 PM 26.6832 -80.0956 101° East  Level Estimated
Thu 09:46:00 PM 26.6832 -80.0956 101° East  Level Estimated
Thu 09:47:00 PM 26.6832 -80.0956 101° East  Level Estimated

Login

Don't have an account? Register now (free) for customized features, flight alerts, and more!